createdAt,value
2023-03-30T00:04:46.440Z,8
2023-03-30T00:09:48.128Z,7
2023-03-30T00:14:49.603Z,9
2023-03-30T00:19:51.231Z,10
2023-03-30T00:24:52.829Z,5
2023-03-30T00:29:54.308Z,11
2023-03-30T00:34:55.779Z,17
2023-03-30T00:39:57.274Z,11
2023-03-30T00:44:58.694Z,10
2023-03-30T00:50:00.135Z,8
2023-03-30T00:55:01.587Z,10
2023-03-30T01:00:03.669Z,7
2023-03-30T01:05:05.138Z,13
2023-03-30T01:10:06.944Z,9
2023-03-30T01:15:08.411Z,7
2023-03-30T01:20:09.854Z,11
2023-03-30T01:25:11.437Z,7
2023-03-30T01:30:12.974Z,8
2023-03-30T01:35:14.540Z,12
2023-03-30T01:40:15.953Z,12
2023-03-30T01:45:17.342Z,7
2023-03-30T01:50:18.937Z,7
2023-03-30T01:55:20.378Z,8
2023-03-30T02:00:21.766Z,7
2023-03-30T02:05:23.197Z,5
2023-03-30T02:10:24.606Z,7
2023-03-30T02:15:26.014Z,4
2023-03-30T02:20:27.438Z,4
2023-03-30T02:25:28.887Z,2
2023-03-30T02:30:30.279Z,5
2023-03-30T02:35:32.470Z,6
2023-03-30T02:40:33.898Z,2
2023-03-30T02:45:35.372Z,3
2023-03-30T02:50:36.876Z,3
2023-03-30T02:55:38.341Z,3
2023-03-30T03:00:39.823Z,2
2023-03-30T03:05:41.193Z,4
2023-03-30T03:10:42.609Z,2
2023-03-30T03:15:44.011Z,9
2023-03-30T03:20:45.449Z,3
2023-03-30T03:25:46.821Z,2
2023-03-30T03:30:48.362Z,2
2023-03-30T03:35:49.839Z,3
2023-03-30T03:40:51.484Z,2
2023-03-30T03:45:53.145Z,3
2023-03-30T03:50:54.661Z,2
2023-03-30T03:55:56.078Z,2
2023-03-30T04:00:57.713Z,1
2023-03-30T04:05:59.167Z,1
2023-03-30T04:11:00.711Z,3
2023-03-30T04:16:02.171Z,3
2023-03-30T04:21:03.947Z,2
2023-03-30T04:26:05.558Z,4
2023-03-30T04:31:07.171Z,4
2023-03-30T04:36:08.868Z,2
2023-03-30T04:41:10.406Z,2
2023-03-30T04:46:11.887Z,2
2023-03-30T04:51:13.562Z,2
2023-03-30T04:56:15.243Z,2
2023-03-30T05:01:16.681Z,4
2023-03-30T05:06:18.121Z,8
2023-03-30T05:11:19.587Z,10
2023-03-30T05:16:21.080Z,2
2023-03-30T05:21:22.489Z,4
2023-03-30T05:26:23.960Z,4
2023-03-30T05:31:25.481Z,2
2023-03-30T05:36:26.993Z,8
2023-03-30T05:41:28.406Z,6
2023-03-30T05:46:29.876Z,6
2023-03-30T05:51:31.578Z,8
2023-03-30T05:56:33.034Z,11
2023-03-30T06:01:34.658Z,7
2023-03-30T06:06:36.097Z,5
2023-03-30T06:11:37.676Z,7
2023-03-30T06:16:39.199Z,6
2023-03-30T06:21:40.800Z,6
2023-03-30T06:26:42.202Z,5
2023-03-30T06:31:43.704Z,2
2023-03-30T06:36:46.077Z,4
2023-03-30T06:41:47.625Z,6
2023-03-30T06:46:49.443Z,4
2023-03-30T06:51:50.935Z,4
2023-03-30T06:56:52.630Z,3
2023-03-30T07:01:54.452Z,1
2023-03-30T07:06:55.912Z,4
2023-03-30T07:11:57.335Z,3
2023-03-30T07:16:58.934Z,5
2023-03-30T07:22:00.488Z,5
2023-03-30T07:27:01.984Z,3
2023-03-30T07:32:03.425Z,7
2023-03-30T07:37:05.003Z,4
2023-03-30T07:42:06.432Z,5
2023-03-30T07:47:07.799Z,3
2023-03-30T07:52:09.313Z,5
2023-03-30T07:57:10.787Z,4
2023-03-30T08:02:12.240Z,2
2023-03-30T08:07:13.699Z,2
2023-03-30T08:12:15.205Z,2
2023-03-30T08:17:16.789Z,1
2023-03-30T08:22:18.300Z,2
2023-03-30T08:27:19.840Z,2
2023-03-30T08:32:21.340Z,1
2023-03-30T08:37:22.825Z,2
2023-03-30T08:42:24.325Z,3
2023-03-30T08:47:25.731Z,1
2023-03-30T08:52:27.192Z,3
2023-03-30T08:57:28.689Z,1
2023-03-30T09:02:30.161Z,0
2023-03-30T09:07:31.589Z,4
2023-03-30T09:12:33.079Z,3
2023-03-30T09:17:34.620Z,4
2023-03-30T09:22:36.300Z,2
2023-03-30T09:27:37.704Z,1
2023-03-30T09:32:39.333Z,1
2023-03-30T09:37:40.819Z,1
2023-03-30T09:42:42.447Z,4
2023-03-30T09:47:43.856Z,0
2023-03-30T09:52:45.309Z,1
2023-03-30T09:57:46.791Z,1
2023-03-30T10:02:48.358Z,0
2023-03-30T10:07:49.892Z,1
2023-03-30T10:12:51.311Z,2
2023-03-30T10:17:52.760Z,1
2023-03-30T10:22:54.156Z,1
2023-03-30T10:27:55.819Z,2
2023-03-30T10:32:57.458Z,1
2023-03-30T10:37:58.997Z,3
2023-03-30T10:43:00.400Z,1
2023-03-30T10:48:01.992Z,1
2023-03-30T10:53:03.709Z,3
2023-03-30T10:58:05.303Z,2
2023-03-30T11:03:06.981Z,1
2023-03-30T11:08:08.511Z,1
2023-03-30T11:13:09.944Z,3
2023-03-30T11:18:11.485Z,5
2023-03-30T11:23:13.111Z,4
2023-03-30T11:28:14.555Z,2
2023-03-30T11:33:15.965Z,2
2023-03-30T11:38:17.620Z,2
2023-03-30T11:43:19.061Z,2
2023-03-30T11:48:20.567Z,2
2023-03-30T11:53:21.961Z,5
2023-03-30T11:58:23.558Z,4
2023-03-30T12:03:25.359Z,3
2023-03-30T12:08:26.880Z,6
2023-03-30T12:13:32.004Z,10
2023-03-30T12:18:39.845Z,23
2023-03-30T12:23:41.229Z,36
2023-03-30T12:29:00.811Z,24
2023-03-30T12:34:14.605Z,8
2023-03-30T12:39:15.982Z,12
2023-03-30T12:44:17.428Z,8
2023-03-30T12:49:18.851Z,3
2023-03-30T12:54:20.291Z,6
2023-03-30T12:59:21.675Z,6
2023-03-30T13:04:24.186Z,5
2023-03-30T13:09:25.751Z,2
2023-03-30T13:14:27.157Z,3
2023-03-30T13:19:28.569Z,2
2023-03-30T13:24:30.023Z,5
2023-03-30T13:29:31.444Z,9
2023-03-30T13:34:32.956Z,15
2023-03-30T13:39:34.345Z,4
2023-03-30T13:44:35.808Z,11
2023-03-30T13:49:37.201Z,9
2023-03-30T13:54:38.864Z,8
2023-03-30T13:59:40.366Z,13
2023-03-30T14:04:41.803Z,10
2023-03-30T14:09:43.246Z,13
2023-03-30T14:14:44.611Z,13
2023-03-30T14:19:46.009Z,7
2023-03-30T14:24:47.615Z,13
2023-03-30T14:29:49.034Z,10
2023-03-30T14:34:50.405Z,10
2023-03-30T14:39:51.798Z,6
2023-03-30T14:44:53.356Z,4
2023-03-30T14:49:54.919Z,2
2023-03-30T14:55:05.007Z,6
2023-03-30T15:00:07.438Z,5
2023-03-30T15:05:08.827Z,6
2023-03-30T15:10:10.245Z,4
2023-03-30T15:15:11.762Z,9
2023-03-30T15:20:13.254Z,8
2023-03-30T15:25:14.638Z,9
2023-03-30T15:30:16.029Z,9
2023-03-30T15:35:17.504Z,9
2023-03-30T15:40:18.940Z,4
2023-03-30T15:45:20.334Z,8
2023-03-30T15:50:21.749Z,7
2023-03-30T15:55:23.159Z,5
2023-03-30T16:00:24.540Z,9
2023-03-30T16:05:25.990Z,9
2023-03-30T16:10:27.435Z,11
2023-03-30T16:15:28.930Z,7
2023-03-30T16:20:30.341Z,9
2023-03-30T16:25:44.176Z,8
2023-03-30T16:30:46.869Z,8
2023-03-30T16:35:48.336Z,9
2023-03-30T16:40:49.976Z,8
2023-03-30T16:45:51.508Z,9
2023-03-30T16:50:53.075Z,8
2023-03-30T16:55:54.453Z,11
2023-03-30T17:00:55.930Z,4
2023-03-30T17:05:57.483Z,6
2023-03-30T17:10:58.886Z,7
2023-03-30T17:16:00.377Z,8
2023-03-30T17:21:01.853Z,9
2023-03-30T17:26:03.327Z,7
2023-03-30T17:31:05.142Z,7
2023-03-30T17:36:07.026Z,4
2023-03-30T17:41:08.561Z,8
2023-03-30T17:46:10.099Z,8
2023-03-30T17:51:11.575Z,7
2023-03-30T17:56:13.141Z,7
2023-03-30T18:01:14.596Z,8
2023-03-30T18:06:16.008Z,12
2023-03-30T18:11:17.400Z,8
2023-03-30T18:16:18.889Z,7
2023-03-30T18:21:20.327Z,6
2023-03-30T18:26:21.783Z,8
2023-03-30T18:31:23.241Z,8
2023-03-30T18:36:24.779Z,10
2023-03-30T18:41:26.377Z,13
2023-03-30T18:46:27.849Z,10
2023-03-30T18:51:29.531Z,12
2023-03-30T18:56:31.183Z,5
2023-03-30T19:01:32.732Z,5
2023-03-30T19:06:34.221Z,8
2023-03-30T19:11:35.698Z,8
2023-03-30T19:16:37.209Z,10
2023-03-30T19:21:38.704Z,10
2023-03-30T19:26:40.145Z,12
2023-03-30T19:31:41.621Z,11
2023-03-30T19:36:43.174Z,7
2023-03-30T19:41:45.546Z,6
2023-03-30T19:46:47.189Z,11
2023-03-30T19:51:48.641Z,7
2023-03-30T19:56:50.192Z,8
2023-03-30T20:01:51.803Z,14
2023-03-30T20:06:53.767Z,11
2023-03-30T20:11:55.186Z,11
2023-03-30T20:16:56.592Z,12
2023-03-30T20:21:58.105Z,7
2023-03-30T20:26:59.497Z,11
2023-03-30T20:32:01.037Z,14
2023-03-30T20:37:02.594Z,16
2023-03-30T20:42:04.022Z,12
2023-03-30T20:47:05.443Z,12
2023-03-30T20:52:06.895Z,15
2023-03-30T20:57:08.377Z,15
2023-03-30T21:02:09.825Z,14
2023-03-30T21:07:11.270Z,16
2023-03-30T21:12:12.663Z,10
2023-03-30T21:17:14.205Z,9
2023-03-30T21:22:15.621Z,8
2023-03-30T21:27:17.018Z,8
2023-03-30T21:32:18.602Z,13
2023-03-30T21:37:20.063Z,10
2023-03-30T21:42:21.466Z,7
2023-03-30T21:47:23.060Z,7
2023-03-30T21:52:24.456Z,8
2023-03-30T21:57:26.204Z,9
2023-03-30T22:02:27.777Z,9
2023-03-30T22:07:29.257Z,13
2023-03-30T22:12:30.648Z,11
2023-03-30T22:17:32.120Z,7
2023-03-30T22:22:33.537Z,7
2023-03-30T22:27:35.017Z,12
2023-03-30T22:32:36.537Z,8
2023-03-30T22:37:37.966Z,7
2023-03-30T22:42:39.406Z,9
2023-03-30T22:47:40.903Z,10
2023-03-30T22:52:42.318Z,10
2023-03-30T22:57:43.830Z,8
2023-03-30T23:02:45.356Z,7
2023-03-30T23:07:47.070Z,9
2023-03-30T23:12:48.470Z,9
2023-03-30T23:17:49.972Z,10
2023-03-30T23:22:51.451Z,9
2023-03-30T23:27:52.898Z,12
2023-03-30T23:32:54.374Z,10
2023-03-30T23:37:55.912Z,18
2023-03-30T23:42:57.317Z,10
2023-03-30T23:47:58.775Z,12
2023-03-30T23:53:00.227Z,8
2023-03-30T23:58:01.633Z,10
